Time;durP1;ratioP1;P1;durP2;ratioP2;P2;SDS_P1;SDS_P2;PMS_P1;PMS_P2;Temp;Humidity;BMP_temperature;BMP_pressure;BME280_temperature;BME280_humidity;BME280_pressure;Samples;Min_cycle;Max_cycle;Signal;HPM_P1;HPM_P2
2022/05/24 00:02:24;;;;;;;31.15;22.65;;;;;;;15.19;76.49;100048.56;5079119;28;20027;-87
2022/05/24 00:04:50;;;;;;;33.28;23.73;;;;;;;15.19;76.91;100048.56;5064534;28;20024;-88
2022/05/24 00:07:15;;;;;;;30.05;19.92;;;;;;;15.21;76.26;100044.00;5060256;28;20332;-88
2022/05/24 00:09:40;;;;;;;28.38;18.90;;;;;;;15.22;75.98;100032.38;5066748;28;20024;-87
2022/05/24 00:12:06;;;;;;;23.55;17.52;;;;;;;15.20;76.36;100028.97;5059764;28;20039;-88
2022/05/24 00:17:16;;;;;;;24.98;17.15;;;;;;;15.13;76.09;100028.56;5078596;28;20393;-88
2022/05/24 00:19:41;;;;;;;22.98;14.93;;;;;;;15.03;75.93;100019.56;5063454;28;20108;-88
2022/05/24 00:22:06;;;;;;;23.42;15.27;;;;;;;14.98;75.83;100030.53;5074693;28;20456;-87
2022/05/24 00:24:31;;;;;;;20.90;15.10;;;;;;;14.92;75.92;100025.66;5077705;28;20024;-88
2022/05/24 00:26:57;;;;;;;19.85;14.88;;;;;;;14.81;76.25;100038.84;5078092;28;20465;-88
2022/05/24 00:29:22;;;;;;;20.77;14.15;;;;;;;14.81;76.05;100044.16;5079160;28;20115;-87
2022/05/24 00:31:48;;;;;;;26.15;15.35;;;;;;;14.73;76.71;100038.53;5079085;28;20054;-88
2022/05/24 00:34:13;;;;;;;23.60;15.27;;;;;;;14.73;76.45;100044.69;5062970;28;20020;-88
2022/05/24 00:36:39;;;;;;;20.83;14.27;;;;;;;14.70;76.85;100047.59;5076573;28;20063;-87
2022/05/24 00:39:04;;;;;;;20.95;14.68;;;;;;;14.62;76.86;100031.31;5075875;28;20432;-88
2022/05/24 00:41:40;;;;;;;27.60;16.55;;;;;;;14.47;77.50;100027.88;5073962;28;20407;-88
2022/05/24 00:47:33;;;;;;;21.40;14.35;;;;;;;14.39;77.33;100030.22;5066171;28;20059;-88
2022/05/24 00:50:08;;;;;;;19.63;12.88;;;;;;;14.33;77.12;100027.97;5074879;28;20500;-88
2022/05/24 00:52:43;;;;;;;19.30;12.90;;;;;;;14.30;76.70;100031.69;5085398;28;20033;-88
2022/05/24 00:55:12;;;;;;;20.88;11.73;;;;;;;14.29;76.50;100035.31;5076809;28;20410;-87
2022/05/24 00:57:52;;;;;;;20.50;11.23;;;;;;;14.26;76.14;100035.50;5077817;28;20111;-88
2022/05/24 01:00:21;;;;;;;17.13;10.65;;;;;;;14.18;76.10;100024.56;5058808;28;20111;-88
2022/05/24 01:02:47;;;;;;;26.27;12.43;;;;;;;14.06;76.75;100033.38;5064420;28;20043;-88
2022/05/24 01:05:17;;;;;;;20.75;11.40;;;;;;;14.04;76.98;100030.81;5060602;28;20515;-88
2022/05/24 01:07:43;;;;;;;23.67;12.13;;;;;;;14.03;76.86;100018.50;5057076;28;20074;-88
2022/05/24 01:10:17;;;;;;;23.40;12.68;;;;;;;14.04;76.58;100024.66;5079923;28;20475;-88
2022/05/24 01:12:59;;;;;;;19.52;12.52;;;;;;;13.99;76.40;100026.78;5074754;28;20472;-88
2022/05/24 01:15:26;;;;;;;15.73;10.43;;;;;;;13.97;76.33;100026.00;5079189;28;20047;-87
2022/05/24 01:17:53;;;;;;;16.40;11.15;;;;;;;13.91;76.41;100024.63;5081924;28;20035;-88
2022/05/24 01:20:19;;;;;;;19.25;10.80;;;;;;;13.86;76.79;100028.56;5064185;28;20039;-88
2022/05/24 01:23:22;;;;;;;16.90;10.23;;;;;;;13.84;76.79;100031.28;5078478;28;20036;-88
2022/05/24 01:26:26;;;;;;;15.80;10.82;;;;;;;13.79;76.37;100022.78;5082188;28;20028;-88
2022/05/24 01:28:55;;;;;;;15.18;9.30;;;;;;;13.71;76.78;100022.47;5042033;28;20044;-88
2022/05/24 01:31:22;;;;;;;17.15;10.30;;;;;;;13.70;77.05;100032.19;5082473;28;20038;-87
2022/05/24 01:36:37;;;;;;;18.15;9.50;;;;;;;13.61;77.12;100031.97;5078998;28;20066;-88
2022/05/24 01:39:06;;;;;;;20.65;9.32;;;;;;;13.61;76.58;100035.47;5077737;28;20055;-88
2022/05/24 01:41:39;;;;;;;18.30;8.05;;;;;;;13.61;76.62;100038.13;5079217;28;20489;-88
2022/05/24 01:44:06;;;;;;;15.55;8.23;;;;;;;13.59;76.95;100034.72;5063121;28;20390;-88
2022/05/24 01:46:39;;;;;;;16.88;8.90;;;;;;;13.52;76.55;100036.94;5066521;28;20052;-88
2022/05/24 01:49:12;;;;;;;13.10;7.50;;;;;;;13.59;76.55;100047.16;5081133;28;20253;-88
2022/05/24 01:51:44;;;;;;;13.25;6.95;;;;;;;13.54;75.94;100036.84;5080867;28;20024;-88
2022/05/24 01:54:12;;;;;;;13.82;6.60;;;;;;;13.52;76.49;100039.59;5078784;28;20031;-88
2022/05/24 01:57:05;;;;;;;9.98;6.85;;;;;;;13.48;75.76;100027.47;5073255;28;20491;-88
2022/05/24 01:59:32;;;;;;;11.55;6.30;;;;;;;13.44;75.70;100023.31;5080124;28;20040;-88
2022/05/24 02:02:00;;;;;;;12.57;5.72;;;;;;;13.41;75.03;100022.66;5079462;28;20032;-88
2022/05/24 02:04:27;;;;;;;10.85;5.95;;;;;;;13.42;75.62;100032.31;5066114;28;20277;-88
2022/05/24 02:07:14;;;;;;;11.52;5.93;;;;;;;13.40;75.46;100024.44;5057369;28;20054;-88
2022/05/24 02:09:44;;;;;;;9.45;5.10;;;;;;;13.42;75.00;100027.84;5064349;28;20032;-88
2022/05/24 02:12:18;;;;;;;9.73;5.47;;;;;;;13.40;75.16;100034.22;5081588;28;20944;-88
2022/05/24 02:14:51;;;;;;;12.23;5.93;;;;;;;13.32;75.33;100040.00;5080611;28;20039;-87
2022/05/24 02:17:22;;;;;;;13.60;5.25;;;;;;;13.18;75.46;100037.38;5059388;28;20491;-88
2022/05/24 02:19:51;;;;;;;10.13;4.90;;;;;;;13.18;75.33;100046.16;5077242;28;20048;-88
2022/05/24 02:22:23;;;;;;;12.10;5.00;;;;;;;13.18;75.82;100053.28;5082355;28;20434;-88
2022/05/24 02:25:09;;;;;;;7.53;4.50;;;;;;;13.18;75.43;100046.16;5082867;28;20180;-88
2022/05/24 02:27:43;;;;;;;11.75;4.53;;;;;;;13.19;75.53;100049.69;5060003;28;21072;-88
2022/05/24 02:30:09;;;;;;;6.22;3.97;;;;;;;13.21;75.28;100051.28;5080805;28;20012;-88
2022/05/24 02:32:35;;;;;;;9.25;4.20;;;;;;;13.20;74.92;100046.09;5081146;28;20508;-87
2022/05/24 02:35:00;;;;;;;10.50;4.63;;;;;;;13.17;75.26;100041.81;5074241;28;20121;-88
2022/05/24 02:37:25;;;;;;;7.55;4.00;;;;;;;13.16;75.35;100041.94;5061828;28;20116;-88
2022/05/24 02:42:35;;;;;;;8.35;4.28;;;;;;;13.10;74.72;100032.53;5082275;28;20079;-88
2022/05/24 02:45:00;;;;;;;13.13;5.20;;;;;;;13.04;75.02;100040.88;5061297;28;20416;-88
2022/05/24 02:47:26;;;;;;;12.88;4.10;;;;;;;13.03;74.98;100036.53;5063152;28;20471;-88
2022/05/24 02:49:51;;;;;;;7.72;3.97;;;;;;;13.09;74.87;100040.59;5077942;28;20164;-88
2022/05/24 02:52:16;;;;;;;11.02;4.10;;;;;;;13.10;74.68;100043.16;5058855;28;20020;-88
2022/05/24 02:54:42;;;;;;;5.97;3.90;;;;;;;13.07;74.45;100048.66;5058592;28;20535;-88
2022/05/24 02:57:07;;;;;;;7.57;3.28;;;;;;;13.03;74.72;100049.81;5084484;28;20570;-88
2022/05/24 02:59:33;;;;;;;7.82;3.65;;;;;;;13.07;74.96;100050.47;5048829;28;20545;-88
2022/05/24 03:01:59;;;;;;;12.15;4.10;;;;;;;12.99;74.46;100027.06;5078047;28;20441;-88
2022/05/24 03:04:24;;;;;;;7.55;3.47;;;;;;;13.01;74.66;100025.19;5063391;28;20038;-88
2022/05/24 03:09:36;;;;;;;7.22;3.30;;;;;;;13.04;74.48;100032.94;5080745;28;20189;-88
2022/05/24 03:14:53;;;;;;;7.38;3.15;;;;;;;12.91;74.76;100043.44;5072978;28;20044;-88
2022/05/24 03:17:19;;;;;;;7.15;3.10;;;;;;;12.91;74.76;100050.56;5079857;28;20060;-87
2022/05/24 03:19:45;;;;;;;10.57;3.42;;;;;;;12.92;75.09;100039.03;5062126;28;20567;-88
2022/05/24 03:22:11;;;;;;;6.25;3.17;;;;;;;13.00;75.03;100042.03;5074776;28;20025;-88
2022/05/24 03:24:36;;;;;;;7.68;3.72;;;;;;;13.02;75.19;100050.75;5078892;28;20036;-88
2022/05/24 03:27:07;;;;;;;12.27;3.90;;;;;;;13.01;75.15;100049.91;5079550;28;20038;-88
2022/05/24 03:29:34;;;;;;;9.15;3.53;;;;;;;13.05;74.92;100066.47;5081217;28;20029;-88
2022/05/24 03:31:59;;;;;;;6.10;3.90;;;;;;;13.07;74.94;100059.28;5076848;28;20505;-88
2022/05/24 03:34:25;;;;;;;13.30;3.47;;;;;;;13.12;75.21;100056.34;5062011;28;20156;-88
2022/05/24 03:36:50;;;;;;;7.85;3.42;;;;;;;13.11;75.02;100060.81;5075659;28;20037;-88
2022/05/24 03:39:15;;;;;;;10.77;4.10;;;;;;;13.09;75.52;100062.69;5060374;28;20027;-89
2022/05/24 03:41:44;;;;;;;8.65;3.67;;;;;;;13.15;75.46;100058.78;5065702;28;20181;-88
2022/05/24 03:44:09;;;;;;;10.50;4.00;;;;;;;13.14;75.34;100054.44;5077033;28;20496;-88
2022/05/24 03:46:35;;;;;;;10.85;4.32;;;;;;;13.13;75.28;100050.06;5067698;28;20109;-88
2022/05/24 03:49:00;;;;;;;11.57;4.57;;;;;;;13.13;74.77;100042.13;5060654;28;20048;-88
2022/05/24 03:51:26;;;;;;;9.35;4.50;;;;;;;13.17;74.67;100039.16;5079349;28;20512;-88
2022/05/24 03:53:51;;;;;;;11.05;5.13;;;;;;;13.19;74.68;100055.84;5064265;28;20020;-88
2022/05/24 03:56:16;;;;;;;8.63;4.80;;;;;;;13.19;74.55;100074.41;5062029;28;20036;-89
2022/05/24 03:58:41;;;;;;;10.98;5.40;;;;;;;13.13;74.65;100076.63;5076528;28;20050;-88
2022/05/24 04:01:07;;;;;;;11.70;5.68;;;;;;;13.18;74.64;100083.34;5059365;28;20443;-88
2022/05/24 04:03:32;;;;;;;12.00;5.80;;;;;;;13.15;74.70;100080.00;5078508;28;20483;-88
2022/05/24 04:05:58;;;;;;;14.27;6.10;;;;;;;13.18;74.30;100091.28;5057882;28;20468;-88
2022/05/24 04:08:26;;;;;;;10.98;5.18;;;;;;;13.25;74.18;100110.41;5075776;28;20026;-88
2022/05/24 04:11:08;;;;;;;10.57;5.43;;;;;;;13.29;74.21;100114.56;5058131;28;20034;-89
2022/05/24 04:13:36;;;;;;;12.93;5.30;;;;;;;13.29;73.73;100109.25;5077540;28;20055;-88
2022/05/24 04:16:01;;;;;;;10.65;4.65;;;;;;;13.35;74.83;100113.31;5075006;28;20032;-88
2022/05/24 04:18:27;;;;;;;12.90;4.32;;;;;;;13.34;74.00;100109.81;5058400;28;20027;-88
2022/05/24 04:20:52;;;;;;;7.97;4.70;;;;;;;13.39;73.66;100122.81;5057621;28;20422;-89
2022/05/24 04:23:19;;;;;;;11.05;4.90;;;;;;;13.39;73.71;100106.88;5066762;28;20035;-89
2022/05/24 04:25:45;;;;;;;10.80;4.60;;;;;;;13.39;73.81;100090.94;5056905;28;20030;-88
2022/05/24 04:28:11;;;;;;;9.95;4.50;;;;;;;13.41;73.92;100070.44;5076667;28;20505;-88
2022/05/24 04:30:36;;;;;;;9.70;4.20;;;;;;;13.34;73.50;100062.03;5068138;28;20016;-88
2022/05/24 04:33:02;;;;;;;8.32;4.20;;;;;;;13.32;73.78;100074.53;5064873;28;20031;-88
2022/05/24 04:35:27;;;;;;;8.68;4.32;;;;;;;13.32;73.79;100086.94;5062963;28;20375;-89
2022/05/24 04:37:53;;;;;;;14.73;3.80;;;;;;;13.26;73.56;100112.09;5063427;28;20085;-89
2022/05/24 04:40:19;;;;;;;7.57;3.95;;;;;;;13.20;74.18;100121.25;5079125;28;20031;-89
2022/05/24 04:42:45;;;;;;;6.07;3.35;;;;;;;13.21;73.73;100125.63;5073093;28;20024;-88
2022/05/24 04:45:14;;;;;;;9.23;3.90;;;;;;;13.14;73.89;100134.03;5055260;28;20025;-88
2022/05/24 04:47:39;;;;;;;6.97;3.65;;;;;;;13.07;74.19;100128.28;5063678;28;20584;-89
2022/05/24 04:50:09;;;;;;;8.88;3.50;;;;;;;13.09;74.66;100115.75;5062355;28;20093;-88
2022/05/24 04:52:38;;;;;;;6.85;3.65;;;;;;;13.09;74.42;100120.22;5072998;28;20441;-88
2022/05/24 04:55:06;;;;;;;7.47;3.10;;;;;;;13.14;73.84;100126.94;5067398;28;20052;-88
2022/05/24 04:57:32;;;;;;;10.95;3.88;;;;;;;13.17;73.55;100134.72;5077379;28;20024;-89
2022/05/24 04:59:57;;;;;;;8.55;3.85;;;;;;;13.15;74.81;100135.75;5065446;28;20441;-87
2022/05/24 05:02:22;;;;;;;6.57;3.15;;;;;;;13.07;74.24;100130.09;5063181;28;20031;-88
2022/05/24 05:04:48;;;;;;;6.82;3.10;;;;;;;13.13;74.03;100142.97;5079777;28;20028;-88
2022/05/24 05:07:16;;;;;;;9.23;3.50;;;;;;;13.13;74.40;100162.41;5081391;28;20028;-88
2022/05/24 05:09:43;;;;;;;10.85;2.95;;;;;;;13.15;74.14;100163.16;5066869;28;20544;-88
2022/05/24 05:12:10;;;;;;;8.95;3.38;;;;;;;13.15;74.07;100167.59;5064001;28;20177;-88
2022/05/24 05:14:37;;;;;;;7.15;3.20;;;;;;;13.08;73.88;100169.78;5064176;28;20023;-88
2022/05/24 05:17:03;;;;;;;7.45;2.70;;;;;;;13.13;74.10;100177.47;5061224;28;20115;-88
2022/05/24 05:19:29;;;;;;;8.77;3.03;;;;;;;13.14;74.10;100184.47;5068864;28;20344;-88
2022/05/24 05:21:55;;;;;;;7.88;3.92;;;;;;;13.16;73.67;100180.78;5062991;28;20570;-89
2022/05/24 05:24:21;;;;;;;8.68;3.55;;;;;;;13.16;73.43;100174.63;5078544;28;20437;-88
2022/05/24 05:26:46;;;;;;;6.03;2.97;;;;;;;13.20;74.29;100177.00;5091668;28;20110;-88
2022/05/24 05:29:11;;;;;;;5.43;2.30;;;;;;;13.36;74.84;100176.09;5065382;28;20031;-88
2022/05/24 05:31:37;;;;;;;11.93;3.45;;;;;;;13.36;72.78;100166.31;5075811;28;20032;-88
2022/05/24 05:34:03;;;;;;;8.48;3.40;;;;;;;13.25;72.59;100174.09;5073340;28;20028;-88
2022/05/24 05:36:30;;;;;;;11.20;3.03;;;;;;;13.28;73.05;100169.44;5067106;28;20029;-88
2022/05/24 05:38:56;;;;;;;7.28;2.58;;;;;;;13.23;73.00;100168.00;5079471;28;20024;-88
2022/05/24 05:41:25;;;;;;;8.25;3.03;;;;;;;13.30;72.92;100165.84;5082501;28;20035;-88
2022/05/24 05:43:51;;;;;;;9.50;3.22;;;;;;;13.24;72.79;100161.75;5080548;28;20035;-89
2022/05/24 05:46:16;;;;;;;10.07;3.15;;;;;;;13.24;73.20;100164.41;5079394;28;20047;-88
2022/05/24 05:48:43;;;;;;;9.10;3.05;;;;;;;13.33;73.03;100163.00;5067611;28;20047;-88
2022/05/24 05:51:10;;;;;;;9.73;2.75;;;;;;;13.36;72.24;100170.78;5081260;28;20052;-88
2022/05/24 05:53:37;;;;;;;7.90;3.08;;;;;;;13.36;72.23;100174.28;5077978;28;20068;-88
2022/05/24 05:56:03;;;;;;;6.35;3.45;;;;;;;13.34;72.32;100175.34;5078857;28;20027;-88
2022/05/24 05:58:30;;;;;;;7.68;2.38;;;;;;;13.37;71.96;100183.09;5065818;28;20039;-88
2022/05/24 06:00:55;;;;;;;4.72;2.63;;;;;;;13.46;71.81;100187.81;5063965;28;20491;-88
2022/05/24 06:03:21;;;;;;;4.47;2.55;;;;;;;13.35;72.29;100204.44;5062137;28;20049;-87
2022/05/24 06:05:50;;;;;;;5.90;2.58;;;;;;;13.33;72.22;100213.44;5077567;28;20027;-87
2022/05/24 06:08:16;;;;;;;7.60;2.70;;;;;;;13.28;71.81;100214.56;5079628;28;20027;-88
2022/05/24 06:10:41;;;;;;;6.20;2.97;;;;;;;13.27;71.97;100218.16;5059030;28;20043;-88
2022/05/24 06:13:07;;;;;;;8.20;3.40;;;;;;;13.36;71.57;100215.91;5063981;28;20290;-88
2022/05/24 06:15:34;;;;;;;4.75;2.40;;;;;;;13.43;70.66;100219.88;5059768;28;20050;-88
2022/05/24 06:17:59;;;;;;;7.15;2.72;;;;;;;13.47;71.35;100216.94;5073192;28;20575;-88
2022/05/24 06:20:27;;;;;;;9.52;2.60;;;;;;;13.59;71.03;100214.47;5077470;28;20028;-88
2022/05/24 06:22:55;;;;;;;5.90;2.83;;;;;;;13.72;70.79;100218.06;5064850;28;20039;-87
2022/05/24 06:25:21;;;;;;;6.05;2.50;;;;;;;13.88;70.77;100223.25;5066356;28;20475;-88
2022/05/24 06:27:49;;;;;;;5.30;2.50;;;;;;;14.03;69.67;100216.94;5060645;28;20043;-88
2022/05/24 06:30:15;;;;;;;9.73;2.80;;;;;;;14.14;68.96;100213.63;5076218;28;21481;-88
2022/05/24 06:32:40;;;;;;;3.63;2.50;;;;;;;14.25;69.68;100221.75;5080934;28;20063;-89
2022/05/24 06:35:07;;;;;;;5.30;2.47;;;;;;;14.43;68.62;100230.31;5080005;28;20181;-88
2022/05/24 06:37:32;;;;;;;6.43;2.78;;;;;;;14.45;67.93;100225.75;5061066;28;20031;-88
2022/05/24 06:39:57;;;;;;;6.03;2.60;;;;;;;14.49;66.98;100230.78;5062464;28;20025;-89
2022/05/24 06:42:23;;;;;;;5.57;2.53;;;;;;;14.45;67.63;100231.91;5066690;28;20077;-88
2022/05/24 06:44:48;;;;;;;9.07;2.67;;;;;;;14.60;67.24;100239.88;5063148;28;20123;-88
2022/05/24 06:47:14;;;;;;;4.88;2.22;;;;;;;14.64;66.95;100244.91;5072730;28;20056;-88
2022/05/24 06:49:39;;;;;;;5.63;2.67;;;;;;;14.72;67.57;100244.38;5005939;28;1151208;-88
2022/05/24 06:52:05;;;;;;;3.35;1.92;;;;;;;14.83;65.68;100256.94;5038212;28;20491;-89
2022/05/24 06:54:31;;;;;;;5.90;1.98;;;;;;;14.90;65.24;100251.13;5042054;28;20514;-89
2022/05/24 06:56:56;;;;;;;6.22;2.08;;;;;;;14.95;65.04;100257.00;5037845;28;20025;-89
2022/05/24 07:02:25;;;;;;;5.25;2.20;;;;;;;15.39;64.56;100260.22;5038033;28;20407;-90
2022/05/24 07:05:05;;;;;;;4.13;2.10;;;;;;;15.48;64.50;100267.56;5041091;28;20393;-88
2022/05/24 07:07:32;;;;;;;3.70;1.70;;;;;;;15.60;64.27;100274.72;5037467;28;20503;-90
2022/05/24 07:09:58;;;;;;;4.68;1.67;;;;;;;15.75;63.51;100278.13;5037276;28;20469;-89
2022/05/24 07:12:24;;;;;;;7.20;2.15;;;;;;;15.83;63.68;100281.13;5055000;28;20522;-89
2022/05/24 07:14:50;;;;;;;4.35;1.70;;;;;;;15.60;61.31;100284.53;5035692;28;20037;-89
2022/05/24 07:17:17;;;;;;;4.80;1.88;;;;;;;15.57;62.51;100289.13;5038390;28;20491;-89
2022/05/24 07:19:43;;;;;;;1.42;1.30;;;;;;;15.75;61.59;100283.47;5037424;28;20421;-88
2022/05/24 07:22:09;;;;;;;5.72;1.98;;;;;;;15.70;61.39;100297.13;5042951;28;20040;-88
2022/05/24 07:24:35;;;;;;;9.98;2.05;;;;;;;15.76;61.44;100294.03;5035958;28;20510;-88
2022/05/24 07:27:04;;;;;;;6.07;2.17;;;;;;;15.76;60.30;100298.50;5041361;28;20040;-89
2022/05/24 07:29:33;;;;;;;8.65;2.70;;;;;;;15.73;60.85;100307.56;5037951;28;20041;-88
2022/05/24 07:31:58;;;;;;;5.80;2.28;;;;;;;15.74;60.25;100297.75;5039529;28;20036;-89
2022/05/24 07:34:23;;;;;;;4.32;2.10;;;;;;;15.71;59.67;100298.81;5037225;28;20336;-87
2022/05/24 07:36:49;;;;;;;2.50;1.50;;;;;;;15.64;60.04;100312.69;5038029;28;20026;-89
2022/05/24 07:39:14;;;;;;;2.80;1.83;;;;;;;15.65;60.22;100312.56;5038600;28;20021;-88
2022/05/24 07:47:09;;;;;;;7.15;2.50;;;;;;;15.63;59.18;100317.16;5037821;28;20107;-88
2022/05/24 07:49:35;;;;;;;4.22;2.50;;;;;;;16.10;59.36;100314.78;5064471;28;20039;-88
2022/05/24 07:52:00;;;;;;;5.00;2.20;;;;;;;16.69;56.64;100321.09;5076457;28;20028;-87
2022/05/24 07:54:25;;;;;;;4.53;2.17;;;;;;;16.80;56.57;100315.84;5074223;28;20028;-89
2022/05/24 07:56:51;;;;;;;3.85;2.13;;;;;;;16.91;57.06;100314.19;5075269;28;20272;-89
2022/05/24 07:59:17;;;;;;;4.00;1.75;;;;;;;16.75;56.20;100306.50;5063518;28;20028;-88
2022/05/24 08:01:42;;;;;;;9.43;1.92;;;;;;;16.63;56.08;100318.03;5079410;28;20118;-88
2022/05/24 08:04:09;;;;;;;3.85;1.85;;;;;;;16.39;56.14;100316.19;5062009;28;21154;-89
2022/05/24 08:06:35;;;;;;;6.05;2.25;;;;;;;16.24;57.72;100323.50;5077616;28;20024;-89
2022/05/24 08:09:00;;;;;;;2.80;1.90;;;;;;;16.23;57.05;100316.47;5075694;28;20028;-89
2022/05/24 08:11:26;;;;;;;4.20;2.35;;;;;;;16.32;56.61;100321.13;5073688;28;20028;-88
2022/05/24 08:13:51;;;;;;;9.45;2.90;;;;;;;16.43;56.59;100320.34;5063615;28;20036;-89
2022/05/24 08:16:16;;;;;;;6.43;3.15;;;;;;;17.12;55.94;100325.09;5062076;28;20024;-89
2022/05/24 08:18:44;;;;;;;8.40;2.92;;;;;;;17.12;55.23;100333.97;5076420;28;20434;-89
2022/05/24 08:21:09;;;;;;;6.82;2.70;;;;;;;16.64;56.49;100341.94;5058793;28;20020;-89
2022/05/24 08:23:35;;;;;;;4.68;2.90;;;;;;;16.93;55.76;100347.00;5077767;28;20024;-88
2022/05/24 08:26:00;;;;;;;6.78;3.55;;;;;;;16.72;54.65;100330.72;5060692;28;20501;-89
2022/05/24 08:28:26;;;;;;;4.50;3.50;;;;;;;17.20;54.57;100338.69;5076259;28;20474;-89
2022/05/24 08:30:53;;;;;;;5.72;4.00;;;;;;;17.65;54.20;100337.00;5062454;28;20423;-89
2022/05/24 08:33:20;;;;;;;7.63;4.18;;;;;;;18.58;52.31;100337.59;5077436;28;20483;-90
2022/05/24 08:35:47;;;;;;;7.50;4.20;;;;;;;18.64;49.97;100354.97;5076902;28;20532;-88
2022/05/24 08:38:13;;;;;;;4.00;3.60;;;;;;;18.13;52.20;100360.03;5077199;28;20042;-88
2022/05/24 08:40:42;;;;;;;6.97;4.70;;;;;;;17.44;52.67;100362.69;5063148;28;20145;-89
2022/05/24 08:43:26;;;;;;;7.65;3.38;;;;;;;17.12;53.32;100370.50;5059277;28;20359;-88
2022/05/24 08:48:55;;;;;;;3.92;3.00;;;;;;;16.32;56.85;100377.16;5075762;28;20515;-88
2022/05/24 08:51:39;;;;;;;5.22;2.85;;;;;;;16.13;56.60;100379.41;5077794;28;20081;-89
2022/05/24 08:54:11;;;;;;;4.88;3.13;;;;;;;15.98;56.87;100385.81;5059946;28;20032;-89
2022/05/24 08:57:10;;;;;;;4.20;3.08;;;;;;;16.06;56.69;100380.81;5076976;28;20028;-88
2022/05/24 08:59:40;;;;;;;4.70;3.13;;;;;;;16.29;57.34;100400.53;5021723;28;20039;-89
2022/05/24 09:02:06;;;;;;;5.15;2.70;;;;;;;16.35;55.83;100388.56;5055908;28;21197;-88
2022/05/24 09:04:33;;;;;;;2.75;2.35;;;;;;;16.52;56.06;100401.56;5062271;28;20458;-89
2022/05/24 09:07:01;;;;;;;2.60;2.40;;;;;;;16.41;56.51;100404.13;5058060;28;20020;-89
2022/05/24 09:09:29;;;;;;;3.58;2.08;;;;;;;16.12;56.87;100406.19;5057454;28;20484;-88
2022/05/24 09:12:46;;;;;;;6.28;1.90;;;;;;;16.18;56.80;100419.09;5074707;28;20081;-89
2022/05/24 09:15:35;;;;;;;3.78;2.00;;;;;;;16.00;56.99;100423.91;5037683;28;20490;-88
2022/05/24 09:18:20;;;;;;;3.22;2.00;;;;;;;15.95;56.66;100428.72;5060847;28;20115;-88
2022/05/24 09:20:45;;;;;;;2.60;2.40;;;;;;;15.82;56.63;100415.38;5079812;28;20063;-89
2022/05/24 09:23:20;;;;;;;5.15;2.58;;;;;;;16.01;56.63;100428.28;5081917;28;20089;-88
2022/05/24 09:25:58;;;;;;;2.70;2.22;;;;;;;16.19;55.73;100437.66;5076441;28;20028;-89
2022/05/24 09:28:42;;;;;;;5.03;2.90;;;;;;;16.52;57.25;100436.25;5058637;28;20435;-89
2022/05/24 09:31:13;;;;;;;4.63;2.85;;;;;;;16.57;55.84;100432.28;5058992;28;20471;-89
2022/05/24 09:33:41;;;;;;;4.40;4.00;;;;;;;16.62;54.75;100439.09;5060150;28;20024;-89
2022/05/24 09:36:07;;;;;;;5.13;4.50;;;;;;;16.50;54.97;100430.16;5076392;28;20495;-89
2022/05/24 09:38:39;;;;;;;7.10;4.53;;;;;;;16.53;54.89;100441.47;5062688;28;20047;-88
2022/05/24 09:41:14;;;;;;;5.10;4.60;;;;;;;16.48;54.22;100458.78;5082166;28;20815;-89
2022/05/24 09:43:40;;;;;;;6.88;4.43;;;;;;;16.45;54.17;100454.50;5081465;28;20027;-89
2022/05/24 09:46:11;;;;;;;5.65;4.78;;;;;;;16.36;54.55;100449.81;5077429;28;20029;-89
2022/05/24 09:48:52;;;;;;;4.72;4.25;;;;;;;16.54;54.52;100464.50;5081314;28;20044;-88
2022/05/24 09:51:30;;;;;;;6.05;4.75;;;;;;;16.91;53.37;100461.06;5080334;28;20028;-89
2022/05/24 09:53:56;;;;;;;5.07;4.57;;;;;;;17.81;52.05;100463.22;5077819;28;20059;-90
2022/05/24 09:56:29;;;;;;;10.02;4.50;;;;;;;18.23;50.32;100494.78;5065611;28;20074;-88
2022/05/24 09:59:19;;;;;;;8.05;5.32;;;;;;;18.77;50.62;100468.19;5077173;28;20111;-88
2022/05/24 10:01:46;;;;;;;6.40;5.80;;;;;;;19.36;49.74;100469.69;5081104;28;20391;-89
2022/05/24 10:04:25;;;;;;;7.40;4.85;;;;;;;19.65;48.28;100469.09;5076899;28;20054;-89
2022/05/24 10:06:54;;;;;;;7.13;5.43;;;;;;;19.65;47.45;100453.84;5087824;28;20763;-89
2022/05/24 10:09:20;;;;;;;5.88;5.38;;;;;;;19.97;46.41;100456.50;5067072;28;20027;-91
2022/05/24 10:11:59;;;;;;;7.00;6.32;;;;;;;20.21;47.31;100456.19;5066439;28;20028;-89
2022/05/24 10:14:30;;;;;;;6.20;5.55;;;;;;;19.95;45.45;100465.63;5083020;28;20023;-90
2022/05/24 10:17:11;;;;;;;5.70;5.30;;;;;;;19.71;47.39;100476.63;5064704;28;20036;-89
2022/05/24 10:20:00;;;;;;;7.15;6.15;;;;;;;19.60;46.38;100472.16;5047858;28;20114;-87
2022/05/24 10:22:52;;;;;;;6.50;6.00;;;;;;;19.58;46.91;100476.75;5065792;28;20137;-89
2022/05/24 10:25:29;;;;;;;7.97;6.93;;;;;;;19.26;46.00;100471.41;5075887;28;20085;-89
2022/05/24 10:28:08;;;;;;;7.25;6.47;;;;;;;18.94;46.97;100474.88;5079499;28;20032;-89
2022/05/24 10:30:42;;;;;;;6.30;5.70;;;;;;;18.76;47.42;100487.09;5078998;28;20253;-89
2022/05/24 10:38:54;;;;;;;7.93;6.53;;;;;;;19.34;47.31;100493.91;5077753;28;20458;-89
2022/05/24 10:41:41;;;;;;;6.37;5.77;;;;;;;19.38;47.32;100494.50;5086581;28;20035;-87
2022/05/24 10:44:23;;;;;;;7.35;6.75;;;;;;;19.45;48.29;100498.41;5076945;28;20509;-90
2022/05/24 10:47:00;;;;;;;7.65;6.47;;;;;;;19.99;46.14;100500.13;5066943;28;20024;-89
2022/05/24 10:49:42;;;;;;;8.63;6.10;;;;;;;19.71;44.79;100496.25;5075492;28;20055;-90
2022/05/24 10:52:37;;;;;;;6.70;6.00;;;;;;;19.28;45.60;100498.94;5075526;28;20430;-91
2022/05/24 10:55:12;;;;;;;5.63;5.10;;;;;;;18.81;47.50;100506.31;5077774;28;20186;-91
2022/05/24 10:58:09;;;;;;;4.78;4.00;;;;;;;19.21;48.13;100512.00;5085469;28;20067;-91
2022/05/24 11:00:46;;;;;;;3.80;3.35;;;;;;;19.95;46.50;100505.88;5078734;28;21271;-91
2022/05/24 11:03:18;;;;;;;5.20;3.03;;;;;;;20.06;46.03;100516.56;5081403;28;20024;-91
2022/05/24 11:05:45;;;;;;;4.03;2.95;;;;;;;19.96;45.12;100505.78;5079224;28;20054;-91
2022/05/24 11:08:30;;;;;;;3.45;3.08;;;;;;;19.93;46.49;100500.66;5063212;28;20055;-90
2022/05/24 11:11:00;;;;;;;5.28;3.97;;;;;;;19.85;45.65;100509.34;5065392;28;20042;-90
2022/05/24 11:13:43;;;;;;;3.53;3.22;;;;;;;20.13;47.40;100515.91;5061548;28;20103;-91
2022/05/24 11:16:15;;;;;;;3.17;2.85;;;;;;;20.52;45.39;100497.38;5060637;28;20074;-91
2022/05/24 11:18:41;;;;;;;4.00;3.15;;;;;;;21.12;44.11;100508.19;5063397;28;20650;-91
2022/05/24 11:21:42;;;;;;;3.65;3.28;;;;;;;21.61;44.40;100511.84;5075225;28;20543;-89
2022/05/24 11:24:15;;;;;;;4.15;3.72;;;;;;;21.69;44.33;100508.47;5028294;28;20066;-91
2022/05/24 11:26:50;;;;;;;4.70;4.40;;;;;;;21.84;43.25;100497.13;5081919;28;20020;-91
2022/05/24 11:29:29;;;;;;;4.90;4.22;;;;;;;22.27;43.67;100514.66;5077351;28;20051;-91
2022/05/24 11:32:03;;;;;;;4.30;3.90;;;;;;;21.81;39.93;100513.53;5084551;28;20095;-90
2022/05/24 11:34:35;;;;;;;5.07;4.68;;;;;;;21.91;39.83;100511.69;5061952;28;20115;-90
2022/05/24 11:37:13;;;;;;;4.95;4.45;;;;;;;22.07;40.22;100505.75;5075745;28;20035;-89
2022/05/24 11:39:42;;;;;;;4.50;4.10;;;;;;;21.35;39.24;100504.31;5078763;28;20190;-90
2022/05/24 11:42:34;;;;;;;4.43;4.03;;;;;;;21.30;41.60;100522.66;5059886;28;20032;-90
2022/05/24 11:45:19;;;;;;;4.78;4.35;;;;;;;21.30;39.89;100522.66;5062309;28;20050;-90
2022/05/24 11:47:48;;;;;;;4.43;4.13;;;;;;;21.73;40.14;100526.88;5064277;28;20479;-90
2022/05/24 11:50:31;;;;;;;4.50;4.13;;;;;;;22.13;40.51;100520.50;5080429;28;20509;-90
2022/05/24 11:53:15;;;;;;;4.85;4.45;;;;;;;22.47;38.70;100530.78;5062804;28;20498;-90
2022/05/24 11:56:10;;;;;;;5.13;4.53;;;;;;;22.80;39.75;100534.78;5061716;28;20063;-90
2022/05/24 11:58:35;;;;;;;4.30;4.03;;;;;;;23.21;38.80;100538.03;5046376;28;20054;-90
2022/05/24 12:01:16;;;;;;;4.97;4.57;;;;;;;23.62;37.75;100539.31;5077733;28;20024;-89
2022/05/24 12:09:58;;;;;;;5.10;4.70;;;;;;;23.23;37.84;100544.97;5076640;28;20074;-92
2022/05/24 12:12:34;;;;;;;4.95;4.47;;;;;;;22.53;39.41;100549.06;5076938;28;20017;-91
2022/05/24 12:15:11;;;;;;;5.28;4.78;;;;;;;22.20;40.20;100547.72;5058217;28;20028;-91
2022/05/24 12:17:37;;;;;;;5.10;4.60;;;;;;;21.67;38.55;100548.09;5060922;28;20028;-90